Time;durP1;ratioP1;P1;durP2;ratioP2;P2;SDS_P1;SDS_P2;PMS_P1;PMS_P2;Temp;Humidity;BMP_temperature;BMP_pressure;BME280_temperature;BME280_humidity;BME280_pressure;Samples;Min_cycle;Max_cycle;Signal;HPM_P1;HPM_P2
2022/12/01 00:01:15;;;;;;;75.73;18.60;;;5.00;99.90;;;;;;5054157;28;20224;-61
2022/12/01 00:03:42;;;;;;;80.83;22.07;;;5.00;99.90;;;;;;5054071;28;20202;-61
2022/12/01 00:06:14;;;;;;;49.97;16.17;;;5.00;99.90;;;;;;5053960;28;20225;-61
2022/12/01 00:10:24;;;;;;;71.47;22.43;;;5.00;99.90;;;;;;5054242;28;20233;-61
2022/12/01 00:11:27;;;;;;;121.47;24.87;;;5.00;99.90;;;;;;5053765;28;20213;-60
2022/12/01 00:13:54;;;;;;;101.93;25.27;;;5.00;99.90;;;;;;5054435;28;21035;-61
2022/12/01 00:16:20;;;;;;;96.10;23.73;;;5.10;99.90;;;;;;5053711;28;20334;-61
2022/12/01 00:18:49;;;;;;;105.00;24.07;;;5.10;99.90;;;;;;5053818;28;20225;-61
2022/12/01 00:21:19;;;;;;;92.90;23.03;;;5.10;99.90;;;;;;5054034;28;20206;-61
2022/12/01 00:23:47;;;;;;;76.43;22.73;;;5.10;99.90;;;;;;5052140;28;20231;-60
2022/12/01 00:26:14;;;;;;;125.70;26.03;;;5.10;99.90;;;;;;5041714;28;20237;-59
2022/12/01 00:28:41;;;;;;;139.20;24.90;;;5.00;99.90;;;;;;5043213;28;20198;-61
2022/12/01 00:31:08;;;;;;;131.80;26.93;;;5.00;99.90;;;;;;5040909;28;20204;-61
2022/12/01 00:33:35;;;;;;;95.47;22.90;;;5.00;99.90;;;;;;5033783;28;20206;-60
2022/12/01 00:36:02;;;;;;;104.03;23.97;;;5.00;99.90;;;;;;5033428;28;20240;-61
2022/12/01 00:38:31;;;;;;;131.33;23.53;;;5.10;99.90;;;;;;5033393;28;20230;-61
2022/12/01 00:40:58;;;;;;;129.47;25.70;;;5.00;99.90;;;;;;5033559;28;20206;-61
2022/12/01 00:43:25;;;;;;;130.60;23.50;;;5.00;99.90;;;;;;5040653;28;20202;-61
2022/12/01 00:45:51;;;;;;;93.80;21.83;;;5.10;99.90;;;;;;5053432;28;20244;-61
2022/12/01 00:48:18;;;;;;;127.93;25.17;;;5.10;99.90;;;;;;5053349;28;20675;-61
2022/12/01 00:50:45;;;;;;;116.23;26.67;;;5.10;99.90;;;;;;5053098;28;20232;-61
2022/12/01 00:53:12;;;;;;;113.73;25.23;;;5.10;99.90;;;;;;5053031;28;20202;-61
2022/12/01 00:55:40;;;;;;;115.47;23.83;;;5.10;99.90;;;;;;5045082;28;20233;-61
2022/12/01 00:58:07;;;;;;;105.40;26.23;;;5.00;99.90;;;;;;5044495;28;20225;-61
2022/12/01 01:00:37;;;;;;;133.87;26.10;;;5.00;99.90;;;;;;5036771;28;20207;-61
2022/12/01 01:03:04;;;;;;;132.37;29.77;;;5.00;99.90;;;;;;5033140;28;20206;-59
2022/12/01 01:05:30;;;;;;;176.70;28.80;;;5.00;99.90;;;;;;5032808;28;20241;-58
2022/12/01 01:07:57;;;;;;;126.10;25.67;;;5.10;99.90;;;;;;5032212;28;20217;-56
2022/12/01 01:10:24;;;;;;;127.70;28.30;;;5.10;99.90;;;;;;5033209;28;20203;-60
2022/12/01 01:12:52;;;;;;;76.53;18.80;;;5.10;99.90;;;;;;5035202;28;20210;-58
2022/12/01 01:15:18;;;;;;;83.73;20.77;;;5.00;99.90;;;;;;5052742;28;20268;-56
2022/12/01 01:17:45;;;;;;;127.93;27.67;;;5.00;99.90;;;;;;5052438;28;20701;-57
2022/12/01 01:20:12;;;;;;;138.83;27.87;;;5.00;99.90;;;;;;5052711;28;20630;-61
2022/12/01 01:22:39;;;;;;;122.53;24.87;;;5.00;99.90;;;;;;5052899;28;20212;-57
2022/12/01 01:25:06;;;;;;;165.63;28.73;;;5.10;99.90;;;;;;5052810;28;20225;-61
2022/12/01 01:27:34;;;;;;;173.50;30.30;;;5.00;99.90;;;;;;5052501;28;20626;-61
2022/12/01 01:30:02;;;;;;;130.33;29.43;;;5.00;99.90;;;;;;5052543;28;20213;-61
2022/12/01 01:32:29;;;;;;;133.97;28.27;;;5.00;99.90;;;;;;5052572;28;20590;-61
2022/12/01 01:34:55;;;;;;;116.43;29.90;;;5.00;99.90;;;;;;5052283;28;20612;-61
2022/12/01 01:37:22;;;;;;;116.53;29.33;;;5.00;99.90;;;;;;5052205;28;20210;-61
2022/12/01 01:39:48;;;;;;;111.97;27.97;;;5.10;99.90;;;;;;5052529;28;20234;-61
2022/12/01 01:42:19;;;;;;;100.67;26.93;;;5.00;99.90;;;;;;5052506;28;20205;-58
2022/12/01 01:44:49;;;;;;;75.63;21.87;;;5.00;99.90;;;;;;5052219;28;20228;-58
2022/12/01 01:47:20;;;;;;;97.80;25.23;;;5.00;99.90;;;;;;5052495;28;20216;-60
2022/12/01 01:49:47;;;;;;;99.40;28.10;;;5.00;99.90;;;;;;5052369;28;20200;-57
2022/12/01 01:52:14;;;;;;;99.63;27.37;;;5.10;99.90;;;;;;5052444;28;20244;-60
2022/12/01 01:54:45;;;;;;;72.40;21.70;;;5.10;99.90;;;;;;5052523;28;20221;-59
2022/12/01 01:57:16;;;;;;;105.60;26.40;;;5.10;99.90;;;;;;5052042;28;20733;-59
2022/12/01 01:59:47;;;;;;;82.27;22.93;;;5.10;99.90;;;;;;5052087;28;20225;-59
2022/12/01 02:02:15;;;;;;;87.83;25.30;;;5.00;99.90;;;;;;5052305;28;20213;-57
2022/12/01 02:04:47;;;;;;;107.83;26.87;;;5.00;99.90;;;;;;5051919;28;20279;-55
2022/12/01 02:07:17;;;;;;;118.00;30.37;;;5.10;99.90;;;;;;5051740;28;20675;-59
2022/12/01 02:09:44;;;;;;;120.37;27.40;;;5.10;99.90;;;;;;5051802;28;20208;-55
2022/12/01 02:12:25;;;;;;;99.40;23.97;;;5.10;99.90;;;;;;5051830;28;20213;-59
2022/12/01 02:15:13;;;;;;;145.97;32.80;;;5.00;99.90;;;;;;5051334;28;20240;-58
2022/12/01 02:17:47;;;;;;;133.77;29.23;;;4.90;99.90;;;;;;5051690;28;20667;-58
2022/12/01 02:20:50;;;;;;;122.00;29.80;;;4.90;99.90;;;;;;5050753;28;20263;-58
2022/12/01 02:23:54;;;;;;;95.97;26.37;;;5.00;99.90;;;;;;5051892;28;20205;-59
2022/12/01 02:26:39;;;;;;;91.83;24.97;;;5.00;99.90;;;;;;5051156;28;20283;-58
2022/12/01 02:29:40;;;;;;;80.63;24.27;;;4.90;99.90;;;;;;5051556;28;20212;-57
2022/12/01 02:32:15;;;;;;;99.97;25.53;;;4.90;99.90;;;;;;5051617;28;20675;-59
2022/12/01 02:34:47;;;;;;;97.03;26.40;;;5.00;99.90;;;;;;5051459;28;20281;-61
2022/12/01 02:37:23;;;;;;;72.30;20.73;;;5.00;99.90;;;;;;5051288;28;20576;-61
2022/12/01 02:39:56;;;;;;;82.27;25.20;;;4.90;99.90;;;;;;5051479;28;20225;-60
2022/12/01 02:42:52;;;;;;;93.73;25.23;;;5.00;99.90;;;;;;5051739;28;20210;-59
2022/12/01 02:45:28;;;;;;;89.13;24.13;;;4.90;99.90;;;;;;5045973;28;20291;-61
2022/12/01 02:47:59;;;;;;;89.97;24.37;;;4.90;99.90;;;;;;5040035;28;20253;-61
2022/12/01 02:50:27;;;;;;;105.23;25.27;;;4.90;99.90;;;;;;5039899;28;20203;-61
2022/12/01 02:52:55;;;;;;;95.07;26.20;;;4.90;99.90;;;;;;5050987;28;20201;-61
2022/12/01 02:55:21;;;;;;;83.87;25.00;;;4.90;99.90;;;;;;5051425;28;20236;-61
2022/12/01 02:57:48;;;;;;;79.17;23.90;;;5.00;99.90;;;;;;5051219;28;20207;-61
2022/12/01 03:00:17;;;;;;;80.33;24.57;;;5.00;99.90;;;;;;5051353;28;20244;-61
2022/12/01 03:03:00;;;;;;;87.80;24.00;;;4.90;99.90;;;;;;5051648;28;20323;-61
2022/12/01 03:05:34;;;;;;;83.07;23.90;;;5.00;99.90;;;;;;5051131;28;20225;-61
2022/12/01 03:08:12;;;;;;;82.67;22.83;;;4.90;99.90;;;;;;5051329;28;20214;-59
2022/12/01 03:10:47;;;;;;;78.67;24.00;;;4.90;99.90;;;;;;5051366;28;20205;-61
2022/12/01 03:13:21;;;;;;;89.30;23.80;;;4.90;99.90;;;;;;5051271;28;20582;-61
2022/12/01 03:15:56;;;;;;;64.10;19.17;;;4.90;99.90;;;;;;5050958;28;20224;-61
2022/12/01 03:18:30;;;;;;;93.17;25.37;;;4.90;99.90;;;;;;5051273;28;20209;-61
2022/12/01 03:21:02;;;;;;;87.30;25.83;;;4.90;99.90;;;;;;5051065;28;20232;-61
2022/12/01 03:23:33;;;;;;;93.87;27.00;;;4.90;99.90;;;;;;5051446;28;20213;-61
2022/12/01 03:26:05;;;;;;;100.60;25.53;;;4.90;99.90;;;;;;5051033;28;20239;-61
2022/12/01 03:28:43;;;;;;;97.20;26.40;;;4.90;99.90;;;;;;5051321;28;20237;-61
2022/12/01 03:31:15;;;;;;;71.20;20.77;;;5.00;99.90;;;;;;5051690;28;20212;-61
2022/12/01 03:33:48;;;;;;;91.00;24.77;;;4.90;99.90;;;;;;5054786;28;20213;-61
2022/12/01 03:36:19;;;;;;;67.77;17.77;;;4.90;99.90;;;;;;5054422;28;20715;-61
2022/12/01 03:38:51;;;;;;;92.40;26.17;;;4.90;99.90;;;;;;5054571;28;20283;-61
2022/12/01 03:41:22;;;;;;;102.97;27.07;;;4.90;99.90;;;;;;5054709;28;20216;-60
2022/12/01 03:43:55;;;;;;;83.13;21.87;;;4.90;99.90;;;;;;5054653;28;20204;-61
2022/12/01 03:46:28;;;;;;;91.33;23.10;;;4.90;99.90;;;;;;5054152;28;20255;-61
2022/12/01 03:48:56;;;;;;;120.67;26.07;;;4.90;99.90;;;;;;5054757;28;20204;-61
2022/12/01 03:51:31;;;;;;;70.67;18.87;;;4.90;99.90;;;;;;5054187;28;20224;-61
2022/12/01 03:54:05;;;;;;;101.67;25.07;;;4.90;99.90;;;;;;5054464;28;20273;-58
2022/12/01 03:56:40;;;;;;;92.53;22.83;;;4.90;99.90;;;;;;5054122;28;20236;-59
2022/12/01 03:59:08;;;;;;;92.07;24.33;;;4.90;99.90;;;;;;5054591;28;20227;-60
2022/12/01 04:01:35;;;;;;;108.57;24.77;;;4.90;99.90;;;;;;5054109;28;20682;-61
2022/12/01 04:04:10;;;;;;;97.23;24.27;;;4.90;99.90;;;;;;5054109;28;20221;-61
2022/12/01 04:06:37;;;;;;;92.67;22.57;;;4.90;99.90;;;;;;5053828;28;20225;-59
2022/12/01 04:09:04;;;;;;;104.27;24.13;;;4.90;99.90;;;;;;5054059;28;20847;-59
2022/12/01 04:14:15;;;;;;;95.97;25.47;;;4.90;99.90;;;;;;5053900;28;20205;-61
2022/12/01 04:16:41;;;;;;;85.13;22.73;;;4.90;99.90;;;;;;5053736;28;20391;-61
2022/12/01 04:19:10;;;;;;;83.53;22.67;;;4.90;99.90;;;;;;5053791;28;20226;-60
2022/12/01 04:21:37;;;;;;;81.63;23.67;;;4.80;99.90;;;;;;5053784;28;20223;-61
2022/12/01 04:24:04;;;;;;;83.27;21.60;;;4.80;99.90;;;;;;5054175;28;20701;-57
2022/12/01 04:26:32;;;;;;;61.27;17.10;;;4.80;99.90;;;;;;5053882;28;20578;-60
2022/12/01 04:28:59;;;;;;;94.97;24.30;;;4.80;99.90;;;;;;5054185;28;20251;-59
2022/12/01 04:31:26;;;;;;;93.97;24.60;;;4.80;99.90;;;;;;5053785;28;20206;-61
2022/12/01 04:33:54;;;;;;;91.20;24.40;;;4.80;99.90;;;;;;5053465;28;20281;-61
2022/12/01 04:36:22;;;;;;;88.97;26.43;;;4.90;99.90;;;;;;5053255;28;20231;-61
2022/12/01 04:38:48;;;;;;;63.50;20.57;;;4.90;99.90;;;;;;5053689;28;20221;-59
2022/12/01 04:41:15;;;;;;;74.23;21.57;;;4.90;99.90;;;;;;5053685;28;20209;-58
2022/12/01 04:43:42;;;;;;;71.03;20.63;;;4.90;99.90;;;;;;5052364;28;20218;-56
2022/12/01 04:46:09;;;;;;;64.83;20.97;;;4.80;99.90;;;;;;5053147;28;20228;-58
2022/12/01 04:48:38;;;;;;;44.80;15.47;;;4.90;99.90;;;;;;5053484;28;20233;-56
2022/12/01 04:51:05;;;;;;;65.73;21.47;;;4.80;99.90;;;;;;5053473;28;20292;-61
2022/12/01 04:53:34;;;;;;;45.80;15.57;;;4.80;99.90;;;;;;5053484;28;20263;-59
2022/12/01 04:56:01;;;;;;;56.07;17.63;;;4.80;99.90;;;;;;5052845;28;20236;-56
2022/12/01 04:58:28;;;;;;;64.97;22.27;;;4.80;99.90;;;;;;5053379;28;20219;-58
2022/12/01 05:00:55;;;;;;;79.03;23.73;;;4.80;99.90;;;;;;5053254;28;20279;-60
2022/12/01 05:03:22;;;;;;;83.10;22.80;;;4.80;99.90;;;;;;5053384;28;20224;-56
2022/12/01 05:05:48;;;;;;;72.13;21.90;;;4.90;99.90;;;;;;5053032;28;20221;-57
2022/12/01 05:08:15;;;;;;;80.00;23.23;;;4.90;99.90;;;;;;5053089;28;20587;-59
2022/12/01 05:10:43;;;;;;;80.70;23.20;;;4.90;99.90;;;;;;5053079;28;20676;-59
2022/12/01 05:13:10;;;;;;;82.23;24.03;;;4.90;99.90;;;;;;5052785;28;20740;-58
2022/12/01 05:15:36;;;;;;;70.43;17.97;;;5.00;99.90;;;;;;5052407;28;20233;-59
2022/12/01 05:18:04;;;;;;;71.00;22.83;;;5.00;99.90;;;;;;5052723;28;20216;-59
2022/12/01 05:23:15;;;;;;;87.80;25.43;;;4.90;99.90;;;;;;5052645;28;20771;-62
2022/12/01 05:25:43;;;;;;;85.77;23.83;;;4.90;99.90;;;;;;5052522;28;20232;-54
2022/12/01 05:28:10;;;;;;;92.63;25.43;;;4.90;99.90;;;;;;5043795;28;20672;-59
2022/12/01 05:30:37;;;;;;;69.07;20.47;;;4.90;99.90;;;;;;5043957;28;20209;-55
2022/12/01 05:33:03;;;;;;;89.97;25.33;;;4.80;99.90;;;;;;5040898;28;20213;-57
2022/12/01 05:35:32;;;;;;;81.03;22.77;;;4.80;99.90;;;;;;5048369;28;20226;-58
2022/12/01 05:37:59;;;;;;;81.57;23.87;;;4.80;99.90;;;;;;5052207;28;20220;-56
2022/12/01 05:40:25;;;;;;;76.50;22.20;;;4.80;99.90;;;;;;5052533;28;20607;-56
2022/12/01 05:42:53;;;;;;;75.63;22.97;;;4.80;99.90;;;;;;5052171;28;20217;-58
2022/12/01 05:45:20;;;;;;;66.07;19.57;;;4.80;99.90;;;;;;5050432;28;20225;-56
2022/12/01 05:47:47;;;;;;;61.97;20.00;;;4.80;99.90;;;;;;5051516;28;20202;-58
2022/12/01 05:50:13;;;;;;;67.80;23.27;;;4.80;99.90;;;;;;5051863;28;20206;-55
2022/12/01 05:52:40;;;;;;;40.67;16.27;;;4.70;99.90;;;;;;5051704;28;20205;-58
2022/12/01 05:55:07;;;;;;;62.60;20.03;;;4.70;99.90;;;;;;5051394;28;20275;-55
2022/12/01 05:57:34;;;;;;;59.37;21.70;;;4.70;99.90;;;;;;5051590;28;20212;-57
2022/12/01 06:00:02;;;;;;;60.63;21.57;;;4.70;99.90;;;;;;5051734;28;20255;-57
2022/12/01 06:02:29;;;;;;;60.10;22.20;;;4.70;99.90;;;;;;5051972;28;20211;-55
2022/12/01 06:04:56;;;;;;;60.20;20.97;;;4.70;99.90;;;;;;5051642;28;20283;-55
2022/12/01 06:07:24;;;;;;;52.30;19.20;;;4.70;99.90;;;;;;5051755;28;20209;-58
2022/12/01 06:09:51;;;;;;;58.97;21.33;;;4.70;99.90;;;;;;5051446;28;20262;-59
2022/12/01 06:12:18;;;;;;;60.00;18.90;;;4.70;99.90;;;;;;5052130;28;20214;-57
2022/12/01 06:14:45;;;;;;;74.67;23.10;;;4.70;99.90;;;;;;5051262;28;20225;-58
2022/12/01 06:17:13;;;;;;;72.57;21.77;;;4.70;99.90;;;;;;5051426;28;20685;-58
2022/12/01 06:19:39;;;;;;;65.97;22.77;;;4.70;99.90;;;;;;5051189;28;20225;-59
2022/12/01 06:22:06;;;;;;;62.80;22.20;;;4.80;99.90;;;;;;5051780;28;20633;-55
2022/12/01 06:24:33;;;;;;;57.23;19.90;;;4.80;99.90;;;;;;5051196;28;20216;-58
2022/12/01 06:26:59;;;;;;;65.83;23.73;;;4.80;99.90;;;;;;5051623;28;20279;-61
2022/12/01 06:29:26;;;;;;;72.13;23.73;;;4.80;99.90;;;;;;5051360;28;20202;-55
2022/12/01 06:31:53;;;;;;;71.43;23.50;;;4.80;99.90;;;;;;5048344;28;20278;-54
2022/12/01 06:34:21;;;;;;;76.17;25.63;;;4.80;99.90;;;;;;5039767;28;20267;-58
2022/12/01 06:36:48;;;;;;;65.93;22.77;;;4.80;99.90;;;;;;5040869;28;20202;-62
2022/12/01 06:39:15;;;;;;;78.87;22.83;;;4.80;99.90;;;;;;5051035;28;20203;-53
2022/12/01 06:41:42;;;;;;;83.63;24.47;;;4.80;99.90;;;;;;5049936;28;20204;-57
2022/12/01 06:44:10;;;;;;;79.70;26.27;;;4.80;99.90;;;;;;5039568;28;20202;-56
2022/12/01 06:46:37;;;;;;;93.53;25.53;;;4.90;99.90;;;;;;5039300;28;20222;-55
2022/12/01 06:49:06;;;;;;;97.13;26.70;;;4.80;99.90;;;;;;5038909;28;20234;-58
2022/12/01 06:51:34;;;;;;;78.93;22.70;;;4.80;99.90;;;;;;5039000;28;20212;-55
2022/12/01 06:54:01;;;;;;;81.77;23.50;;;4.80;99.90;;;;;;5043532;28;20213;-54
2022/12/01 06:56:27;;;;;;;89.93;24.43;;;4.80;99.90;;;;;;5035217;28;20288;-59
2022/12/01 06:58:54;;;;;;;81.37;23.07;;;4.80;99.90;;;;;;5031028;28;20209;-61
2022/12/01 07:01:21;;;;;;;87.53;26.00;;;4.80;99.90;;;;;;5031197;28;20282;-59
2022/12/01 07:03:48;;;;;;;93.87;26.90;;;4.90;99.90;;;;;;5030936;28;20677;-60
2022/12/01 07:06:15;;;;;;;65.77;20.87;;;4.90;99.90;;;;;;5032047;28;20734;-60
2022/12/01 07:08:43;;;;;;;84.73;25.17;;;4.80;99.90;;;;;;5034687;28;20211;-61
2022/12/01 07:11:12;;;;;;;94.83;26.53;;;4.80;99.90;;;;;;5035316;28;20257;-61
2022/12/01 07:13:40;;;;;;;82.53;24.67;;;4.80;99.90;;;;;;5043611;28;20258;-62
2022/12/01 07:16:08;;;;;;;133.77;29.17;;;4.80;99.90;;;;;;5054550;28;20773;-61
2022/12/01 07:18:37;;;;;;;103.33;24.37;;;4.80;99.90;;;;;;5054617;28;20627;-64
2022/12/01 07:21:05;;;;;;;126.97;28.13;;;4.80;99.90;;;;;;5054566;28;20676;-64
2022/12/01 07:23:33;;;;;;;117.97;30.80;;;4.90;99.90;;;;;;5053876;28;20289;-63
2022/12/01 07:26:02;;;;;;;129.93;30.83;;;5.20;99.90;;;;;;5046186;28;20769;-64
2022/12/01 07:28:29;;;;;;;106.87;28.37;;;5.20;99.90;;;;;;5046395;28;20206;-62
2022/12/01 07:31:01;;;;;;;94.00;24.80;;;5.10;99.90;;;;;;5046095;28;20198;-62
2022/12/01 07:33:28;;;;;;;113.07;27.27;;;5.00;99.90;;;;;;5054712;28;20232;-62
2022/12/01 07:35:54;;;;;;;132.03;30.17;;;5.00;99.90;;;;;;5054109;28;20229;-61
2022/12/01 07:38:21;;;;;;;116.93;29.43;;;4.90;99.90;;;;;;5045500;28;20600;-62
2022/12/01 07:40:48;;;;;;;117.07;29.43;;;4.90;99.90;;;;;;5053508;28;20227;-62
2022/12/01 07:43:16;;;;;;;115.53;29.23;;;4.80;99.90;;;;;;5054305;28;20201;-62
2022/12/01 07:45:42;;;;;;;113.60;28.87;;;4.80;99.90;;;;;;5053679;28;20232;-62
2022/12/01 07:48:09;;;;;;;96.87;25.60;;;4.80;99.90;;;;;;5054258;28;20206;-61
2022/12/01 07:50:36;;;;;;;92.77;24.53;;;4.80;99.90;;;;;;5053691;28;20203;-62
2022/12/01 07:55:50;;;;;;;87.33;22.73;;;4.70;99.90;;;;;;5040679;28;20229;-62
2022/12/01 07:58:18;;;;;;;96.43;23.90;;;4.80;99.90;;;;;;5053048;28;20244;-62
2022/12/01 08:00:44;;;;;;;83.10;21.47;;;4.80;99.90;;;;;;5053849;28;20224;-62
2022/12/01 08:03:11;;;;;;;36.10;12.47;;;4.70;99.90;;;;;;5053290;28;20213;-62
2022/12/01 08:05:38;;;;;;;94.13;23.93;;;4.70;99.90;;;;;;5053376;28;20228;-62
2022/12/01 08:08:06;;;;;;;71.40;21.90;;;4.70;99.90;;;;;;5052701;28;20208;-62
2022/12/01 08:10:32;;;;;;;70.73;20.27;;;4.70;99.90;;;;;;5053682;28;20212;-62
2022/12/01 08:12:59;;;;;;;55.67;16.40;;;4.70;99.90;;;;;;5052789;28;20212;-62
2022/12/01 08:15:27;;;;;;;68.77;20.53;;;4.70;99.90;;;;;;5053370;28;20233;-62
2022/12/01 08:17:54;;;;;;;73.37;21.10;;;4.70;99.90;;;;;;5052676;28;20640;-63
2022/12/01 08:20:20;;;;;;;72.83;18.97;;;4.70;99.90;;;;;;5053057;28;20250;-62
2022/12/01 08:22:47;;;;;;;58.43;16.30;;;4.70;99.90;;;;;;5053249;28;20322;-62
2022/12/01 08:25:14;;;;;;;68.33;21.10;;;4.70;99.90;;;;;;5052738;28;20217;-63
2022/12/01 08:27:41;;;;;;;73.03;19.83;;;4.70;99.90;;;;;;5052784;28;20216;-63
2022/12/01 08:30:09;;;;;;;61.57;18.47;;;4.70;99.90;;;;;;5052794;28;20206;-62
2022/12/01 08:32:37;;;;;;;39.97;14.57;;;4.60;99.90;;;;;;5053424;28;20624;-62
2022/12/01 08:35:04;;;;;;;69.33;19.27;;;4.60;99.90;;;;;;5052828;28;20232;-62
2022/12/01 08:37:30;;;;;;;49.37;15.10;;;4.60;99.90;;;;;;5052124;28;20213;-62
2022/12/01 08:39:57;;;;;;;60.20;18.93;;;4.60;99.90;;;;;;5052644;28;20209;-62
2022/12/01 08:42:24;;;;;;;55.50;17.47;;;4.60;99.90;;;;;;5052659;28;20217;-62
2022/12/01 08:44:50;;;;;;;60.20;18.83;;;4.60;99.90;;;;;;5052741;28;20562;-62
2022/12/01 08:47:17;;;;;;;33.07;11.60;;;4.60;99.90;;;;;;5052250;28;20611;-62
2022/12/01 08:49:45;;;;;;;46.53;15.03;;;4.60;99.90;;;;;;5053280;28;20730;-62
2022/12/01 08:52:12;;;;;;;57.43;17.37;;;4.60;99.90;;;;;;5053437;28;20211;-62
2022/12/01 08:54:39;;;;;;;60.83;25.60;;;4.60;99.90;;;;;;5053479;28;20226;-62
2022/12/01 08:57:06;;;;;;;26.40;11.33;;;4.60;99.90;;;;;;5053396;28;20205;-62
2022/12/01 08:59:32;;;;;;;52.23;18.37;;;4.60;99.90;;;;;;5052776;28;20873;-62
2022/12/01 09:01:59;;;;;;;67.77;18.27;;;4.60;99.90;;;;;;5053129;28;20225;-64
2022/12/01 09:04:26;;;;;;;40.87;13.57;;;4.60;99.90;;;;;;5052401;28;20687;-64
2022/12/01 09:06:56;;;;;;;72.67;20.93;;;4.60;99.90;;;;;;5051846;28;20213;-64
2022/12/01 09:09:25;;;;;;;66.27;19.63;;;4.60;99.90;;;;;;5052339;28;20205;-65
2022/12/01 09:11:52;;;;;;;78.57;21.57;;;4.60;99.90;;;;;;5052619;28;20201;-64
2022/12/01 09:14:20;;;;;;;52.77;16.97;;;4.60;99.90;;;;;;5051973;28;20240;-64
2022/12/01 09:16:49;;;;;;;73.23;21.80;;;4.70;99.90;;;;;;5051892;28;20723;-62
2022/12/01 09:19:17;;;;;;;75.83;22.40;;;4.70;99.90;;;;;;5051936;28;20245;-61
2022/12/01 09:21:44;;;;;;;69.63;19.47;;;4.70;99.90;;;;;;5052054;28;20273;-61
2022/12/01 09:24:16;;;;;;;67.50;20.90;;;4.60;99.90;;;;;;5052358;28;20536;-64
2022/12/01 09:26:43;;;;;;;73.33;23.57;;;4.60;99.90;;;;;;5051291;28;20223;-61
2022/12/01 09:29:12;;;;;;;72.00;24.33;;;4.60;99.90;;;;;;5050694;28;20245;-62
2022/12/01 09:31:39;;;;;;;72.60;23.67;;;4.60;99.90;;;;;;5051515;28;20771;-62
2022/12/01 09:34:08;;;;;;;74.30;23.73;;;4.60;99.90;;;;;;5051920;28;20201;-61
2022/12/01 09:36:36;;;;;;;79.13;24.67;;;4.60;99.90;;;;;;5042911;28;20227;-60
2022/12/01 09:39:03;;;;;;;71.70;22.97;;;4.60;99.90;;;;;;5043524;28;20216;-62
2022/12/01 09:41:35;;;;;;;78.83;26.33;;;4.50;99.90;;;;;;5035308;28;20780;-61
2022/12/01 09:44:09;;;;;;;73.30;25.03;;;4.50;99.90;;;;;;5035897;28;20729;-61
2022/12/01 09:46:40;;;;;;;75.07;23.47;;;4.50;99.90;;;;;;5051414;28;20221;-60
2022/12/01 09:49:15;;;;;;;68.57;20.70;;;4.50;99.90;;;;;;5051480;28;20293;-61
2022/12/01 09:51:42;;;;;;;67.07;22.27;;;4.50;99.90;;;;;;5051857;28;20194;-61
2022/12/01 09:54:13;;;;;;;83.40;26.20;;;4.50;99.90;;;;;;5051437;28;20198;-61
2022/12/01 09:56:44;;;;;;;47.57;15.97;;;4.60;99.90;;;;;;5051192;28;20295;-65
2022/12/01 09:59:18;;;;;;;68.70;23.33;;;4.50;99.90;;;;;;5050831;28;20820;-63
2022/12/01 10:01:48;;;;;;;72.70;22.37;;;4.60;99.90;;;;;;5051932;28;20209;-63
2022/12/01 10:04:19;;;;;;;67.57;21.37;;;4.70;99.90;;;;;;5051270;28;20614;-63
2022/12/01 10:06:51;;;;;;;70.10;22.30;;;4.60;99.90;;;;;;5051151;28;20619;-62
2022/12/01 10:09:23;;;;;;;62.03;21.63;;;4.60;99.90;;;;;;5050824;28;20215;-63
2022/12/01 10:11:54;;;;;;;64.80;22.90;;;4.60;99.90;;;;;;5051866;28;20202;-63
2022/12/01 10:14:21;;;;;;;74.00;22.87;;;4.60;99.90;;;;;;5051440;28;20209;-63
2022/12/01 10:16:55;;;;;;;70.53;24.33;;;4.60;99.90;;;;;;5049454;28;20210;-63
2022/12/01 10:19:30;;;;;;;81.87;27.40;;;4.60;99.90;;;;;;5046284;28;20208;-63
2022/12/01 10:22:12;;;;;;;84.33;25.87;;;4.60;99.90;;;;;;5050433;28;20217;-61
2022/12/01 10:24:53;;;;;;;67.17;21.27;;;4.60;99.90;;;;;;5051214;28;20223;-62
2022/12/01 10:27:32;;;;;;;85.07;26.60;;;4.60;99.90;;;;;;5050301;28;20211;-62
2022/12/01 10:30:05;;;;;;;78.67;25.17;;;4.70;99.90;;;;;;5050872;28;20203;-61
2022/12/01 10:32:44;;;;;;;77.70;26.63;;;4.80;99.90;;;;;;5050358;28;20211;-61
2022/12/01 10:35:12;;;;;;;81.90;27.10;;;4.80;99.90;;;;;;5051185;28;20256;-62
2022/12/01 10:37:40;;;;;;;88.37;28.57;;;4.90;99.90;;;;;;5048953;28;20213;-62
2022/12/01 10:40:12;;;;;;;74.27;26.90;;;5.00;99.90;;;;;;5050235;28;20290;-62
2022/12/01 10:42:43;;;;;;;83.50;27.03;;;5.00;99.90;;;;;;5053989;28;20281;-60
2022/12/01 10:45:15;;;;;;;98.57;31.53;;;5.00;99.90;;;;;;5055575;28;20283;-60
2022/12/01 10:48:16;;;;;;;80.17;24.63;;;5.00;99.90;;;;;;5054407;28;20673;-61
2022/12/01 10:50:45;;;;;;;91.50;29.63;;;5.00;99.90;;;;;;5055025;28;20201;-61
2022/12/01 10:53:27;;;;;;;88.13;28.20;;;5.00;99.90;;;;;;5055052;28;20212;-61
2022/12/01 10:56:01;;;;;;;71.30;26.07;;;5.00;99.90;;;;;;5054443;28;20232;-61
2022/12/01 10:58:32;;;;;;;77.70;27.40;;;5.00;99.90;;;;;;5054559;28;20228;-62
2022/12/01 11:01:00;;;;;;;77.17;27.57;;;4.90;99.90;;;;;;5054747;28;20650;-62
2022/12/01 11:03:30;;;;;;;73.53;29.60;;;5.00;99.90;;;;;;5055754;28;20209;-62
2022/12/01 11:05:59;;;;;;;67.13;23.87;;;5.00;99.90;;;;;;5054825;28;20290;-61
2022/12/01 11:08:33;;;;;;;52.67;19.37;;;5.00;99.90;;;;;;5054729;28;20567;-62
2022/12/01 11:11:01;;;;;;;63.20;23.73;;;5.00;99.90;;;;;;5054356;28;20195;-63
2022/12/01 11:13:31;;;;;;;70.83;25.33;;;5.00;99.90;;;;;;5055148;28;20206;-63
2022/12/01 11:16:00;;;;;;;62.70;23.77;;;5.00;99.90;;;;;;5054114;28;20218;-60
2022/12/01 11:18:31;;;;;;;59.60;25.23;;;5.10;99.90;;;;;;5054817;28;20205;-62
2022/12/01 11:21:07;;;;;;;80.03;30.00;;;5.10;99.90;;;;;;5054918;28;20251;-63
2022/12/01 11:23:37;;;;;;;97.20;35.83;;;5.10;99.90;;;;;;5055063;28;20216;-62
2022/12/01 11:26:14;;;;;;;84.27;31.63;;;5.10;99.90;;;;;;5054588;28;20229;-61
2022/12/01 11:28:51;;;;;;;93.33;33.27;;;5.10;99.90;;;;;;5053909;28;20197;-62
2022/12/01 11:31:19;;;;;;;91.53;33.90;;;5.10;99.90;;;;;;5054625;28;20262;-62
2022/12/01 11:33:50;;;;;;;91.97;33.83;;;5.10;99.90;;;;;;5051766;28;20349;-63
2022/12/01 11:36:27;;;;;;;85.53;32.30;;;5.10;99.90;;;;;;5053876;28;20217;-65
2022/12/01 11:38:59;;;;;;;82.93;30.93;;;5.10;99.90;;;;;;5053026;28;20213;-66
2022/12/01 11:41:32;;;;;;;83.27;34.10;;;5.30;99.90;;;;;;5053484;28;20233;-66
2022/12/01 11:44:03;;;;;;;80.20;31.90;;;5.30;99.90;;;;;;5053332;28;20209;-66
2022/12/01 11:46:34;;;;;;;93.20;34.47;;;5.50;99.90;;;;;;5053711;28;20267;-66
2022/12/01 11:49:01;;;;;;;93.83;36.40;;;5.80;99.90;;;;;;5053332;28;20224;-65
2022/12/01 11:51:35;;;;;;;98.40;35.23;;;6.10;99.90;;;;;;5053747;28;20202;-63
2022/12/01 11:54:14;;;;;;;102.20;36.53;;;6.00;99.90;;;;;;5047444;28;20734;-61
2022/12/01 11:56:42;;;;;;;84.10;35.13;;;5.90;99.90;;;;;;5053561;28;20225;-63
2022/12/01 11:59:14;;;;;;;92.07;35.37;;;5.70;99.90;;;;;;5053712;28;20202;-63
2022/12/01 12:01:53;;;;;;;81.03;35.27;;;5.60;99.90;;;;;;5053489;28;20221;-62
2022/12/01 12:04:36;;;;;;;72.33;30.63;;;5.50;99.90;;;;;;5054174;28;20194;-63
2022/12/01 12:07:10;;;;;;;77.80;33.80;;;5.40;99.90;;;;;;5053198;28;20201;-62
2022/12/01 12:09:55;;;;;;;71.23;26.33;;;5.30;99.90;;;;;;5053744;28;20205;-61
2022/12/01 12:12:35;;;;;;;80.60;31.87;;;5.40;99.90;;;;;;5053107;28;20220;-62
2022/12/01 12:15:15;;;;;;;57.27;26.80;;;5.40;99.90;;;;;;5046048;28;20220;-61
2022/12/01 12:17:52;;;;;;;44.13;19.03;;;5.30;99.90;;;;;;5052995;28;20645;-61
2022/12/01 12:20:36;;;;;;;76.00;32.47;;;5.30;99.90;;;;;;5053863;28;20204;-62
2022/12/01 12:23:29;;;;;;;72.77;32.07;;;5.30;99.90;;;;;;5052842;28;20221;-62
2022/12/01 12:26:06;;;;;;;48.63;20.03;;;5.30;99.90;;;;;;5053112;28;20320;-61
2022/12/01 12:28:42;;;;;;;66.80;30.80;;;5.30;99.90;;;;;;5052375;28;20205;-61
2022/12/01 12:31:19;;;;;;;75.63;32.20;;;5.30;99.90;;;;;;5053631;28;20212;-63
2022/12/01 12:34:12;;;;;;;70.83;32.17;;;5.30;99.90;;;;;;5053319;28;20213;-62
2022/12/01 12:36:46;;;;;;;67.60;30.87;;;5.30;99.90;;;;;;5052303;28;20222;-62
2022/12/01 12:39:29;;;;;;;73.83;32.13;;;5.30;99.90;;;;;;5052767;28;20205;-63
2022/12/01 12:41:56;;;;;;;65.27;30.10;;;5.30;99.90;;;;;;5052918;28;20725;-63
2022/12/01 12:44:44;;;;;;;75.10;32.93;;;5.30;99.90;;;;;;5052920;28;20622;-62
2022/12/01 12:47:24;;;;;;;63.73;28.33;;;5.30;99.90;;;;;;5045593;28;20217;-62
2022/12/01 12:49:58;;;;;;;73.37;31.80;;;5.30;99.90;;;;;;5051951;28;20267;-62
2022/12/01 12:52:29;;;;;;;68.23;30.60;;;5.30;99.90;;;;;;5052851;28;20205;-62
2022/12/01 12:55:00;;;;;;;70.17;31.83;;;5.30;99.90;;;;;;5053062;28;20283;-63
2022/12/01 12:57:32;;;;;;;66.73;30.13;;;5.40;99.90;;;;;;5052008;28;20209;-65
2022/12/01 13:00:04;;;;;;;66.87;30.90;;;5.40;99.90;;;;;;5052608;28;20247;-64